sensor_id;sensor_type;location;lat;lon;timestamp;pressure;altitude;pressure_sealevel;temperature;humidity
4617;BME280;2321;42.704;23.384;2024-02-04T00:00:08;95862.91;;;2.71;100.00
4617;BME280;2321;42.704;23.384;2024-02-04T00:02:36;95862.22;;;2.69;100.00
4617;BME280;2321;42.704;23.384;2024-02-04T00:05:03;95866.22;;;2.74;100.00
4617;BME280;2321;42.704;23.384;2024-02-04T00:07:31;95853.94;;;2.74;100.00
4617;BME280;2321;42.704;23.384;2024-02-04T00:09:58;95853.94;;;2.74;100.00
4617;BME280;2321;42.704;23.384;2024-02-04T00:12:25;95863.50;;;2.75;100.00
4617;BME280;2321;42.704;23.384;2024-02-04T00:14:52;95861.44;;;2.79;100.00
4617;BME280;2321;42.704;23.384;2024-02-04T00:17:18;95854.63;;;2.76;100.00
4617;BME280;2321;42.704;23.384;2024-02-04T00:19:45;95864.44;;;2.74;100.00
4617;BME280;2321;42.704;23.384;2024-02-04T00:22:12;95868.19;;;2.71;100.00
4617;BME280;2321;42.704;23.384;2024-02-04T00:24:41;95861.81;;;2.74;100.00
4617;BME280;2321;42.704;23.384;2024-02-04T00:27:07;95864.75;;;2.81;100.00
4617;BME280;2321;42.704;23.384;2024-02-04T00:29:34;95859.81;;;2.88;100.00
4617;BME280;2321;42.704;23.384;2024-02-04T00:32:01;95856.66;;;2.94;100.00
4617;BME280;2321;42.704;23.384;2024-02-04T00:34:27;95855.81;;;2.93;100.00
4617;BME280;2321;42.704;23.384;2024-02-04T00:36:54;95859.03;;;2.97;100.00
4617;BME280;2321;42.704;23.384;2024-02-04T00:39:21;95849.03;;;3.01;100.00
4617;BME280;2321;42.704;23.384;2024-02-04T00:41:49;95859.88;;;3.08;100.00
4617;BME280;2321;42.704;23.384;2024-02-04T00:44:16;95854.59;;;3.08;100.00
4617;BME280;2321;42.704;23.384;2024-02-04T00:46:42;95849.91;;;3.11;100.00
4617;BME280;2321;42.704;23.384;2024-02-04T00:49:09;95845.06;;;3.16;100.00
4617;BME280;2321;42.704;23.384;2024-02-04T00:51:36;95853.69;;;3.19;100.00
4617;BME280;2321;42.704;23.384;2024-02-04T00:54:03;95854.22;;;3.12;100.00
4617;BME280;2321;42.704;23.384;2024-02-04T00:56:30;95847.13;;;3.13;100.00
4617;BME280;2321;42.704;23.384;2024-02-04T00:58:58;95857.38;;;3.16;100.00
4617;BME280;2321;42.704;23.384;2024-02-04T01:01:25;95849.78;;;3.23;100.00
4617;BME280;2321;42.704;23.384;2024-02-04T01:03:52;95851.31;;;3.25;100.00
4617;BME280;2321;42.704;23.384;2024-02-04T01:06:18;95858.00;;;3.30;100.00
4617;BME280;2321;42.704;23.384;2024-02-04T01:08:45;95849.84;;;3.43;100.00
4617;BME280;2321;42.704;23.384;2024-02-04T01:11:12;95851.66;;;3.62;100.00
4617;BME280;2321;42.704;23.384;2024-02-04T01:13:39;95850.72;;;3.83;100.00
4617;BME280;2321;42.704;23.384;2024-02-04T01:16:07;95846.28;;;3.94;100.00
4617;BME280;2321;42.704;23.384;2024-02-04T01:18:33;95852.22;;;4.16;100.00
4617;BME280;2321;42.704;23.384;2024-02-04T01:21:00;95856.09;;;4.31;100.00
4617;BME280;2321;42.704;23.384;2024-02-04T01:23:27;95850.94;;;4.40;100.00
4617;BME280;2321;42.704;23.384;2024-02-04T01:25:54;95844.69;;;4.51;100.00
4617;BME280;2321;42.704;23.384;2024-02-04T01:28:20;95848.28;;;4.60;100.00
4617;BME280;2321;42.704;23.384;2024-02-04T01:30:47;95814.13;;;4.48;100.00
4617;BME280;2321;42.704;23.384;2024-02-04T01:33:15;95841.53;;;4.75;100.00
4617;BME280;2321;42.704;23.384;2024-02-04T01:35:42;95839.84;;;4.84;100.00
4617;BME280;2321;42.704;23.384;2024-02-04T01:38:09;95844.69;;;4.89;100.00
4617;BME280;2321;42.704;23.384;2024-02-04T01:40:35;95833.84;;;4.92;100.00
4617;BME280;2321;42.704;23.384;2024-02-04T01:43:02;95832.69;;;5.05;100.00
4617;BME280;2321;42.704;23.384;2024-02-04T01:45:29;95832.75;;;5.13;100.00
4617;BME280;2321;42.704;23.384;2024-02-04T01:47:56;95826.47;;;5.24;100.00
4617;BME280;2321;42.704;23.384;2024-02-04T01:50:24;95832.06;;;5.39;100.00
4617;BME280;2321;42.704;23.384;2024-02-04T01:52:51;95823.88;;;5.42;100.00
4617;BME280;2321;42.704;23.384;2024-02-04T01:55:18;95827.53;;;5.50;100.00
4617;BME280;2321;42.704;23.384;2024-02-04T01:57:45;95827.56;;;5.68;100.00
4617;BME280;2321;42.704;23.384;2024-02-04T02:00:13;95822.22;;;5.78;100.00
4617;BME280;2321;42.704;23.384;2024-02-04T02:02:40;95828.63;;;5.94;100.00
4617;BME280;2321;42.704;23.384;2024-02-04T02:05:08;95820.75;;;6.02;100.00
4617;BME280;2321;42.704;23.384;2024-02-04T02:07:36;95820.16;;;6.08;100.00
4617;BME280;2321;42.704;23.384;2024-02-04T02:10:03;95821.22;;;6.16;100.00
4617;BME280;2321;42.704;23.384;2024-02-04T02:12:33;95807.41;;;6.22;100.00
4617;BME280;2321;42.704;23.384;2024-02-04T02:15:03;95805.72;;;6.21;100.00
4617;BME280;2321;42.704;23.384;2024-02-04T02:17:35;95813.50;;;6.23;100.00
4617;BME280;2321;42.704;23.384;2024-02-04T02:20:06;95807.44;;;6.30;100.00
4617;BME280;2321;42.704;23.384;2024-02-04T02:22:39;95798.72;;;6.38;100.00
4617;BME280;2321;42.704;23.384;2024-02-04T02:25:11;95797.44;;;6.42;100.00
4617;BME280;2321;42.704;23.384;2024-02-04T02:27:45;95796.53;;;6.60;100.00
4617;BME280;2321;42.704;23.384;2024-02-04T02:30:12;95807.91;;;6.88;100.00
4617;BME280;2321;42.704;23.384;2024-02-04T02:32:39;95802.22;;;7.09;100.00
4617;BME280;2321;42.704;23.384;2024-02-04T02:35:06;95795.28;;;7.16;100.00
4617;BME280;2321;42.704;23.384;2024-02-04T02:37:34;95801.78;;;7.30;100.00
4617;BME280;2321;42.704;23.384;2024-02-04T02:40:05;95804.28;;;7.40;100.00
4617;BME280;2321;42.704;23.384;2024-02-04T02:42:33;95799.31;;;7.37;100.00
4617;BME280;2321;42.704;23.384;2024-02-04T02:45:01;95798.34;;;7.47;100.00
4617;BME280;2321;42.704;23.384;2024-02-04T02:47:28;95796.53;;;7.56;100.00
4617;BME280;2321;42.704;23.384;2024-02-04T02:49:55;95801.88;;;7.72;100.00
4617;BME280;2321;42.704;23.384;2024-02-04T02:52:22;95795.09;;;7.87;100.00
4617;BME280;2321;42.704;23.384;2024-02-04T02:54:49;95801.88;;;7.98;100.00
4617;BME280;2321;42.704;23.384;2024-02-04T02:57:16;95795.75;;;7.97;100.00
4617;BME280;2321;42.704;23.384;2024-02-04T02:59:44;95798.22;;;8.07;100.00
4617;BME280;2321;42.704;23.384;2024-02-04T03:02:10;95798.56;;;8.12;100.00
4617;BME280;2321;42.704;23.384;2024-02-04T03:04:39;95809.31;;;8.19;99.83
4617;BME280;2321;42.704;23.384;2024-02-04T03:07:05;95807.03;;;8.24;99.34
4617;BME280;2321;42.704;23.384;2024-02-04T03:09:32;95806.34;;;8.22;99.56
4617;BME280;2321;42.704;23.384;2024-02-04T03:11:59;95806.34;;;8.22;99.66
4617;BME280;2321;42.704;23.384;2024-02-04T03:14:26;95808.84;;;8.24;98.92
4617;BME280;2321;42.704;23.384;2024-02-04T03:16:54;95800.69;;;8.25;98.58
4617;BME280;2321;42.704;23.384;2024-02-04T03:19:21;95801.88;;;8.23;99.02
4617;BME280;2321;42.704;23.384;2024-02-04T03:21:47;95806.00;;;8.25;98.99
4617;BME280;2321;42.704;23.384;2024-02-04T03:24:14;95803.34;;;8.25;98.53
4617;BME280;2321;42.704;23.384;2024-02-04T03:26:41;95797.06;;;8.26;98.80
4617;BME280;2321;42.704;23.384;2024-02-04T03:29:08;95789.94;;;8.27;98.83
4617;BME280;2321;42.704;23.384;2024-02-04T03:31:34;95801.72;;;8.24;98.79
4617;BME280;2321;42.704;23.384;2024-02-04T03:34:02;95801.03;;;8.22;98.97
4617;BME280;2321;42.704;23.384;2024-02-04T03:36:30;95792.28;;;8.22;98.72
4617;BME280;2321;42.704;23.384;2024-02-04T03:38:56;95781.81;;;8.20;98.82
4617;BME280;2321;42.704;23.384;2024-02-04T03:41:23;95792.59;;;8.19;98.85
4617;BME280;2321;42.704;23.384;2024-02-04T03:43:50;95782.66;;;8.12;99.14
4617;BME280;2321;42.704;23.384;2024-02-04T03:46:17;95762.25;;;8.13;98.83
4617;BME280;2321;42.704;23.384;2024-02-04T03:48:44;95762.25;;;8.04;99.69
4617;BME280;2321;42.704;23.384;2024-02-04T04:00:57;62246.03;;;-150.68;100.00
4617;BME280;2321;42.704;23.384;2024-02-04T04:05:52;62246.03;;;-150.68;100.00
4617;BME280;2321;42.704;23.384;2024-02-04T05:31:23;62246.03;;;-150.68;100.00
4617;BME280;2321;42.704;23.384;2024-02-04T05:43:35;62246.03;;;-150.68;100.00
4617;BME280;2321;42.704;23.384;2024-02-04T05:46:02;62246.03;;;-150.68;100.00
4617;BME280;2321;42.704;23.384;2024-02-04T06:12:54;62246.03;;;-150.68;100.00
4617;BME280;2321;42.704;23.384;2024-02-04T06:15:20;62246.03;;;-150.68;100.00
4617;BME280;2321;42.704;23.384;2024-02-04T07:09:06;62246.03;;;-150.68;100.00
4617;BME280;2321;42.704;23.384;2024-02-04T07:21:19;62246.03;;;-150.68;100.00
4617;BME280;2321;42.704;23.384;2024-02-04T07:31:06;62246.03;;;-150.68;100.00
4617;BME280;2321;42.704;23.384;2024-02-04T07:45:47;62246.03;;;-150.68;100.00
4617;BME280;2321;42.704;23.384;2024-02-04T07:55:34;95850.50;;;9.46;nan
4617;BME280;2321;42.704;23.384;2024-02-04T07:58:01;95848.84;;;9.45;nan
4617;BME280;2321;42.704;23.384;2024-02-04T08:00:27;95858.78;;;9.51;nan
4617;BME280;2321;42.704;23.384;2024-02-04T08:02:54;95881.50;;;9.62;nan
4617;BME280;2321;42.704;23.384;2024-02-04T08:05:21;95862.19;;;9.68;nan
4617;BME280;2321;42.704;23.384;2024-02-04T08:07:48;95861.31;;;9.76;nan
4617;BME280;2321;42.704;23.384;2024-02-04T08:10:15;95851.31;;;9.78;nan
4617;BME280;2321;42.704;23.384;2024-02-04T08:12:43;95854.94;;;9.86;nan
4617;BME280;2321;42.704;23.384;2024-02-04T08:15:15;95855.91;;;9.93;nan
4617;BME280;2321;42.704;23.384;2024-02-04T08:17:42;95851.88;;;9.97;nan
4617;BME280;2321;42.704;23.384;2024-02-04T08:20:09;95845.97;;;10.10;nan
4617;BME280;2321;42.704;23.384;2024-02-04T08:22:36;95845.06;;;10.18;nan
4617;BME280;2321;42.704;23.384;2024-02-04T08:25:04;95858.00;;;10.21;nan
4617;BME280;2321;42.704;23.384;2024-02-04T08:27:31;95849.03;;;10.22;nan
4617;BME280;2321;42.704;23.384;2024-02-04T08:29:59;95832.41;;;10.20;nan
4617;BME280;2321;42.704;23.384;2024-02-04T08:32:26;95853.88;;;10.19;nan
4617;BME280;2321;42.704;23.384;2024-02-04T08:34:53;95840.94;;;10.16;nan
4617;BME280;2321;42.704;23.384;2024-02-04T08:37:19;95846.91;;;10.18;nan
4617;BME280;2321;42.704;23.384;2024-02-04T08:39:46;95848.75;;;10.17;nan
4617;BME280;2321;42.704;23.384;2024-02-04T08:42:13;95852.25;;;10.18;nan
4617;BME280;2321;42.704;23.384;2024-02-04T08:44:39;95848.38;;;10.20;nan
4617;BME280;2321;42.704;23.384;2024-02-04T08:47:08;95830.81;;;10.11;nan
4617;BME280;2321;42.704;23.384;2024-02-04T08:49:36;95843.53;;;10.24;nan
4617;BME280;2321;42.704;23.384;2024-02-04T08:52:03;95845.50;;;10.30;nan
4617;BME280;2321;42.704;23.384;2024-02-04T08:54:30;95841.81;;;10.31;nan
4617;BME280;2321;42.704;23.384;2024-02-04T08:56:56;95843.94;;;10.36;nan
4617;BME280;2321;42.704;23.384;2024-02-04T08:59:23;95839.72;;;10.42;nan
4617;BME280;2321;42.704;23.384;2024-02-04T09:01:52;95846.69;;;10.43;nan
4617;BME280;2321;42.704;23.384;2024-02-04T09:04:21;95844.22;;;10.41;nan
4617;BME280;2321;42.704;23.384;2024-02-04T09:06:48;95822.91;;;10.41;nan
4617;BME280;2321;42.704;23.384;2024-02-04T09:09:14;95827.63;;;10.39;nan
4617;BME280;2321;42.704;23.384;2024-02-04T09:11:41;95826.09;;;10.37;nan
4617;BME280;2321;42.704;23.384;2024-02-04T09:14:08;95833.66;;;10.33;nan
4617;BME280;2321;42.704;23.384;2024-02-04T09:16:37;95832.63;;;10.34;nan
4617;BME280;2321;42.704;23.384;2024-02-04T09:19:04;95836.22;;;10.41;nan
4617;BME280;2321;42.704;23.384;2024-02-04T09:21:32;95842.75;;;10.39;nan
4617;BME280;2321;42.704;23.384;2024-02-04T09:23:59;95836.59;;;10.38;nan
4617;BME280;2321;42.704;23.384;2024-02-04T09:26:26;95842.91;;;10.37;nan
4617;BME280;2321;42.704;23.384;2024-02-04T09:28:53;95862.72;;;10.34;nan
4617;BME280;2321;42.704;23.384;2024-02-04T09:31:20;95851.72;;;10.38;nan
4617;BME280;2321;42.704;23.384;2024-02-04T09:33:46;95853.41;;;10.39;nan
4617;BME280;2321;42.704;23.384;2024-02-04T09:36:13;95846.03;;;10.41;nan
4617;BME280;2321;42.704;23.384;2024-02-04T09:38:44;95840.72;;;10.41;nan
4617;BME280;2321;42.704;23.384;2024-02-04T09:41:11;95838.63;;;10.36;nan
4617;BME280;2321;42.704;23.384;2024-02-04T09:43:38;95850.50;;;10.49;nan
4617;BME280;2321;42.704;23.384;2024-02-04T09:46:05;95844.19;;;10.65;nan
4617;BME280;2321;42.704;23.384;2024-02-04T09:48:32;95843.84;;;10.83;nan
4617;BME280;2321;42.704;23.384;2024-02-04T09:50:59;95840.44;;;11.05;nan
4617;BME280;2321;42.704;23.384;2024-02-04T09:53:28;95845.13;;;11.18;nan
4617;BME280;2321;42.704;23.384;2024-02-04T09:55:59;95838.88;;;11.26;nan
4617;BME280;2321;42.704;23.384;2024-02-04T09:58:27;95844.28;;;11.32;nan
4617;BME280;2321;42.704;23.384;2024-02-04T10:00:54;95837.75;;;11.35;nan
4617;BME280;2321;42.704;23.384;2024-02-04T10:03:21;95839.13;;;11.46;nan
4617;BME280;2321;42.704;23.384;2024-02-04T10:05:48;95829.34;;;11.53;nan
4617;BME280;2321;42.704;23.384;2024-02-04T10:08:15;95838.72;;;11.64;nan
4617;BME280;2321;42.704;23.384;2024-02-04T10:10:41;95836.69;;;11.66;nan
4617;BME280;2321;42.704;23.384;2024-02-04T10:13:10;95841.09;;;11.74;nan
4617;BME280;2321;42.704;23.384;2024-02-04T10:15:37;95841.09;;;11.74;nan
4617;BME280;2321;42.704;23.384;2024-02-04T10:18:04;95858.00;;;11.82;nan
4617;BME280;2321;42.704;23.384;2024-02-04T10:20:31;95834.22;;;11.87;nan
4617;BME280;2321;42.704;23.384;2024-02-04T10:22:58;95843.25;;;11.86;nan
4617;BME280;2321;42.704;23.384;2024-02-04T10:25:25;95844.78;;;11.73;nan
4617;BME280;2321;42.704;23.384;2024-02-04T10:27:55;95840.09;;;11.60;nan
4617;BME280;2321;42.704;23.384;2024-02-04T10:30:24;95830.97;;;11.70;nan
4617;BME280;2321;42.704;23.384;2024-02-04T10:32:51;95852.16;;;11.93;nan
4617;BME280;2321;42.704;23.384;2024-02-04T10:35:20;95838.00;;;11.93;nan
4617;BME280;2321;42.704;23.384;2024-02-04T10:37:48;95831.94;;;11.84;nan
4617;BME280;2321;42.704;23.384;2024-02-04T10:40:15;95837.22;;;11.77;nan
4617;BME280;2321;42.704;23.384;2024-02-04T10:42:42;95843.31;;;11.71;nan
4617;BME280;2321;42.704;23.384;2024-02-04T10:45:09;95849.13;;;11.59;nan
4617;BME280;2321;42.704;23.384;2024-02-04T10:47:38;95845.34;;;11.53;nan
4617;BME280;2321;42.704;23.384;2024-02-04T10:50:07;95826.06;;;11.51;nan
4617;BME280;2321;42.704;23.384;2024-02-04T10:52:36;95839.41;;;11.51;nan
4617;BME280;2321;42.704;23.384;2024-02-04T10:55:06;95826.31;;;11.57;nan
4617;BME280;2321;42.704;23.384;2024-02-04T10:57:33;95826.97;;;11.59;nan
4617;BME280;2321;42.704;23.384;2024-02-04T11:00:04;95850.41;;;11.63;nan
4617;BME280;2321;42.704;23.384;2024-02-04T11:02:34;95824.38;;;11.65;nan
4617;BME280;2321;42.704;23.384;2024-02-04T11:05:02;95815.88;;;11.77;nan
4617;BME280;2321;42.704;23.384;2024-02-04T11:07:31;95828.66;;;11.82;nan
4617;BME280;2321;42.704;23.384;2024-02-04T11:09:58;95841.16;;;11.81;nan
4617;BME280;2321;42.704;23.384;2024-02-04T11:12:25;95850.19;;;11.80;nan
4617;BME280;2321;42.704;23.384;2024-02-04T11:14:55;95824.06;;;11.75;nan
4617;BME280;2321;42.704;23.384;2024-02-04T11:20:10;95818.72;;;11.75;nan
4617;BME280;2321;42.704;23.384;2024-02-04T11:22:46;95822.84;;;11.78;nan
4617;BME280;2321;42.704;23.384;2024-02-04T11:25:24;95800.56;;;11.86;nan
4617;BME280;2321;42.704;23.384;2024-02-04T11:27:56;95798.03;;;11.99;nan
4617;BME280;2321;42.704;23.384;2024-02-04T11:30:23;95808.75;;;12.06;nan
4617;BME280;2321;42.704;23.384;2024-02-04T11:32:50;95799.38;;;12.11;nan
4617;BME280;2321;42.704;23.384;2024-02-04T11:35:19;95808.84;;;12.13;nan
4617;BME280;2321;42.704;23.384;2024-02-04T11:37:46;95804.16;;;12.15;nan
4617;BME280;2321;42.704;23.384;2024-02-04T11:40:14;95778.53;;;12.21;nan
4617;BME280;2321;42.704;23.384;2024-02-04T11:42:42;95772.41;;;12.27;nan
4617;BME280;2321;42.704;23.384;2024-02-04T11:45:09;95790.56;;;12.39;nan
4617;BME280;2321;42.704;23.384;2024-02-04T11:47:37;95781.16;;;12.43;nan
4617;BME280;2321;42.704;23.384;2024-02-04T11:50:04;95769.75;;;12.56;nan
4617;BME280;2321;42.704;23.384;2024-02-04T11:52:33;95757.88;;;12.66;nan
4617;BME280;2321;42.704;23.384;2024-02-04T11:54:59;95760.75;;;12.64;nan
4617;BME280;2321;42.704;23.384;2024-02-04T11:57:26;95770.41;;;12.65;nan
4617;BME280;2321;42.704;23.384;2024-02-04T11:59:53;95758.91;;;12.64;nan
4617;BME280;2321;42.704;23.384;2024-02-04T12:02:21;95759.56;;;12.73;nan
4617;BME280;2321;42.704;23.384;2024-02-04T12:04:48;95746.41;;;12.72;nan
4617;BME280;2321;42.704;23.384;2024-02-04T12:07:15;95743.53;;;12.73;nan
4617;BME280;2321;42.704;23.384;2024-02-04T12:09:43;95749.34;;;12.84;nan
4617;BME280;2321;42.704;23.384;2024-02-04T12:12:10;95751.94;;;13.06;nan
4617;BME280;2321;42.704;23.384;2024-02-04T12:14:38;95750.56;;;13.24;nan
4617;BME280;2321;42.704;23.384;2024-02-04T12:17:07;95769.28;;;13.24;nan
4617;BME280;2321;42.704;23.384;2024-02-04T12:19:34;95764.91;;;13.09;nan
4617;BME280;2321;42.704;23.384;2024-02-04T12:22:01;95756.41;;;12.99;nan
4617;BME280;2321;42.704;23.384;2024-02-04T12:24:33;95750.41;;;12.90;nan
4617;BME280;2321;42.704;23.384;2024-02-04T12:27:01;95741.53;;;12.82;nan
4617;BME280;2321;42.704;23.384;2024-02-04T12:29:28;95750.75;;;12.80;nan
4617;BME280;2321;42.704;23.384;2024-02-04T12:31:57;95743.09;;;12.70;nan
4617;BME280;2321;42.704;23.384;2024-02-04T12:34:24;95737.38;;;12.73;nan
4617;BME280;2321;42.704;23.384;2024-02-04T12:36:57;95736.19;;;12.82;nan
4617;BME280;2321;42.704;23.384;2024-02-04T12:39:23;95735.59;;;12.87;nan
4617;BME280;2321;42.704;23.384;2024-02-04T12:41:50;95731.09;;;12.94;nan
4617;BME280;2321;42.704;23.384;2024-02-04T12:44:19;95733.41;;;13.04;nan
4617;BME280;2321;42.704;23.384;2024-02-04T12:46:49;95723.97;;;13.09;nan
4617;BME280;2321;42.704;23.384;2024-02-04T12:49:18;95730.56;;;13.13;nan
4617;BME280;2321;42.704;23.384;2024-02-04T12:51:45;95723.78;;;13.17;nan
4617;BME280;2321;42.704;23.384;2024-02-04T12:54:12;95757.69;;;13.10;nan
4617;BME280;2321;42.704;23.384;2024-02-04T12:56:39;95728.84;;;12.98;nan
4617;BME280;2321;42.704;23.384;2024-02-04T12:59:06;95730.47;;;12.92;nan
4617;BME280;2321;42.704;23.384;2024-02-04T13:01:34;95734.16;;;12.91;nan
4617;BME280;2321;42.704;23.384;2024-02-04T13:04:01;95737.91;;;12.97;nan
4617;BME280;2321;42.704;23.384;2024-02-04T13:06:28;95736.84;;;12.91;nan
4617;BME280;2321;42.704;23.384;2024-02-04T13:08:55;95737.44;;;12.87;nan
4617;BME280;2321;42.704;23.384;2024-02-04T13:11:24;95743.41;;;12.89;nan
4617;BME280;2321;42.704;23.384;2024-02-04T13:13:51;95758.16;;;12.78;nan
4617;BME280;2321;42.704;23.384;2024-02-04T13:16:18;95739.81;;;12.68;nan
4617;BME280;2321;42.704;23.384;2024-02-04T13:18:52;95753.16;;;12.68;nan
4617;BME280;2321;42.704;23.384;2024-02-04T13:21:19;95757.28;;;12.70;nan
4617;BME280;2321;42.704;23.384;2024-02-04T13:23:47;95752.22;;;12.82;nan
4617;BME280;2321;42.704;23.384;2024-02-04T13:26:14;95757.59;;;12.89;nan
4617;BME280;2321;42.704;23.384;2024-02-04T13:28:41;95750.75;;;12.80;nan
4617;BME280;2321;42.704;23.384;2024-02-04T13:31:07;95758.91;;;12.64;nan
4617;BME280;2321;42.704;23.384;2024-02-04T13:33:35;95773.81;;;12.52;nan
4617;BME280;2321;42.704;23.384;2024-02-04T13:36:04;95755.47;;;12.42;nan
4617;BME280;2321;42.704;23.384;2024-02-04T13:38:31;95760.19;;;12.40;nan
4617;BME280;2321;42.704;23.384;2024-02-04T13:40:57;95755.72;;;12.47;nan
4617;BME280;2321;42.704;23.384;2024-02-04T13:43:24;95759.41;;;12.46;nan
4617;BME280;2321;42.704;23.384;2024-02-04T13:45:51;95755.06;;;12.45;nan
4617;BME280;2321;42.704;23.384;2024-02-04T13:48:18;95749.34;;;12.48;nan
4617;BME280;2321;42.704;23.384;2024-02-04T13:50:47;95754.50;;;12.50;nan
4617;BME280;2321;42.704;23.384;2024-02-04T13:53:15;95761.91;;;12.55;nan
4617;BME280;2321;42.704;23.384;2024-02-04T13:55:42;95756.16;;;12.51;nan
4617;BME280;2321;42.704;23.384;2024-02-04T13:58:10;95768.44;;;12.45;nan
4617;BME280;2321;42.704;23.384;2024-02-04T14:00:37;95754.84;;;12.40;nan
4617;BME280;2321;42.704;23.384;2024-02-04T14:03:04;95758.28;;;12.34;nan
4617;BME280;2321;42.704;23.384;2024-02-04T14:05:31;95762.56;;;12.28;nan
4617;BME280;2321;42.704;23.384;2024-02-04T14:07:58;95742.44;;;12.25;nan
4617;BME280;2321;42.704;23.384;2024-02-04T14:10:26;95759.72;;;12.29;nan
4617;BME280;2321;42.704;23.384;2024-02-04T14:12:53;95763.56;;;12.27;nan
4617;BME280;2321;42.704;23.384;2024-02-04T14:15:20;95755.38;;;12.28;nan
4617;BME280;2321;42.704;23.384;2024-02-04T14:17:46;95760.28;;;12.25;nan
4617;BME280;2321;42.704;23.384;2024-02-04T14:20:14;95743.75;;;12.14;nan
4617;BME280;2321;42.704;23.384;2024-02-04T14:22:41;95759.28;;;12.26;nan
4617;BME280;2321;42.704;23.384;2024-02-04T14:25:08;95758.44;;;12.25;nan
4617;BME280;2321;42.704;23.384;2024-02-04T14:27:36;95756.41;;;12.27;nan
4617;BME280;2321;42.704;23.384;2024-02-04T14:30:03;95750.59;;;12.24;nan
4617;BME280;2321;42.704;23.384;2024-02-04T14:32:32;95755.72;;;12.18;nan
4617;BME280;2321;42.704;23.384;2024-02-04T14:34:58;95750.66;;;12.08;nan
4617;BME280;2321;42.704;23.384;2024-02-04T14:37:25;95747.97;;;12.02;nan
4617;BME280;2321;42.704;23.384;2024-02-04T14:39:53;95762.09;;;11.95;nan
4617;BME280;2321;42.704;23.384;2024-02-04T14:42:20;95757.97;;;11.93;nan
4617;BME280;2321;42.704;23.384;2024-02-04T14:44:48;95762.47;;;11.92;nan
4617;BME280;2321;42.704;23.384;2024-02-04T14:47:14;95773.06;;;11.85;nan
4617;BME280;2321;42.704;23.384;2024-02-04T14:49:41;95759.28;;;11.82;nan
4617;BME280;2321;42.704;23.384;2024-02-04T14:52:08;95760.13;;;11.82;nan
4617;BME280;2321;42.704;23.384;2024-02-04T14:54:35;95764.16;;;11.78;nan
4617;BME280;2321;42.704;23.384;2024-02-04T14:57:01;95767.41;;;11.73;nan
4617;BME280;2321;42.704;23.384;2024-02-04T14:59:28;95757.69;;;11.65;nan
4617;BME280;2321;42.704;23.384;2024-02-04T15:01:57;95772.44;;;11.61;nan
4617;BME280;2321;42.704;23.384;2024-02-04T15:04:24;95770.31;;;11.57;nan
4617;BME280;2321;42.704;23.384;2024-02-04T15:06:51;95766.81;;;11.56;nan
4617;BME280;2321;42.704;23.384;2024-02-04T15:09:18;95769.91;;;11.53;nan
4617;BME280;2321;42.704;23.384;2024-02-04T15:11:46;95769.63;;;11.48;nan
4617;BME280;2321;42.704;23.384;2024-02-04T15:14:13;95768.97;;;11.46;nan
4617;BME280;2321;42.704;23.384;2024-02-04T15:16:40;95763.66;;;11.46;nan
4617;BME280;2321;42.704;23.384;2024-02-04T15:19:08;95775.53;;;11.43;nan
4617;BME280;2321;42.704;23.384;2024-02-04T15:21:36;95773.03;;;11.41;nan
4617;BME280;2321;42.704;23.384;2024-02-04T15:24:03;95772.56;;;11.38;nan
4617;BME280;2321;42.704;23.384;2024-02-04T15:26:30;95773.16;;;11.33;nan
4617;BME280;2321;42.704;23.384;2024-02-04T15:28:57;95769.84;;;11.31;nan
4617;BME280;2321;42.704;23.384;2024-02-04T15:31:28;95764.44;;;11.24;nan
4617;BME280;2321;42.704;23.384;2024-02-04T15:33:55;95762.53;;;11.18;nan
4617;BME280;2321;42.704;23.384;2024-02-04T15:36:23;95762.91;;;11.15;nan
4617;BME280;2321;42.704;23.384;2024-02-04T15:38:51;95766.94;;;11.10;nan
4617;BME280;2321;42.704;23.384;2024-02-04T15:41:17;95771.63;;;11.08;nan
4617;BME280;2321;42.704;23.384;2024-02-04T15:43:44;95778.53;;;11.03;nan
4617;BME280;2321;42.704;23.384;2024-02-04T15:46:11;95785.06;;;11.00;nan
4617;BME280;2321;42.704;23.384;2024-02-04T15:48:38;95782.94;;;10.95;nan
4617;BME280;2321;42.704;23.384;2024-02-04T15:51:05;95791.97;;;10.94;nan
4617;BME280;2321;42.704;23.384;2024-02-04T15:53:34;95779.66;;;10.93;nan
4617;BME280;2321;42.704;23.384;2024-02-04T15:56:01;95779.19;;;10.89;nan
4617;BME280;2321;42.704;23.384;2024-02-04T15:58:31;95782.41;;;10.85;nan
4617;BME280;2321;42.704;23.384;2024-02-04T16:01:03;95784.59;;;10.81;nan
4617;BME280;2321;42.704;23.384;2024-02-04T16:03:35;95770.00;;;10.77;nan
4617;BME280;2321;42.704;23.384;2024-02-04T16:06:02;95770.56;;;10.72;nan
4617;BME280;2321;42.704;23.384;2024-02-04T16:08:29;95770.94;;;10.69;nan
4617;BME280;2321;42.704;23.384;2024-02-04T16:10:58;95763.78;;;10.70;nan
4617;BME280;2321;42.704;23.384;2024-02-04T16:13:29;95764.66;;;10.62;nan
4617;BME280;2321;42.704;23.384;2024-02-04T16:15:57;95757.06;;;10.59;nan
4617;BME280;2321;42.704;23.384;2024-02-04T16:18:28;95770.56;;;10.57;nan
4617;BME280;2321;42.704;23.384;2024-02-04T16:20:55;95766.22;;;10.56;nan
4617;BME280;2321;42.704;23.384;2024-02-04T16:23:21;95763.28;;;10.51;nan
4617;BME280;2321;42.704;23.384;2024-02-04T16:25:48;95770.09;;;10.53;nan
4617;BME280;2321;42.704;23.384;2024-02-04T16:28:17;95771.44;;;10.49;nan
4617;BME280;2321;42.704;23.384;2024-02-04T16:30:44;95788.06;;;10.51;nan
4617;BME280;2321;42.704;23.384;2024-02-04T16:33:12;95790.41;;;10.46;nan
4617;BME280;2321;42.704;23.384;2024-02-04T16:35:39;95796.09;;;10.43;nan
4617;BME280;2321;42.704;23.384;2024-02-04T16:38:06;95804.28;;;10.41;nan
4617;BME280;2321;42.704;23.384;2024-02-04T16:40:33;95798.97;;;10.41;nan
4617;BME280;2321;42.704;23.384;2024-02-04T16:43:00;95804.66;;;10.38;nan
4617;BME280;2321;42.704;23.384;2024-02-04T16:45:29;95811.06;;;10.29;nan
4617;BME280;2321;42.704;23.384;2024-02-04T16:47:56;95806.28;;;10.24;nan
4617;BME280;2321;42.704;23.384;2024-02-04T16:50:24;95810.09;;;10.21;nan
4617;BME280;2321;42.704;23.384;2024-02-04T16:52:51;95808.34;;;10.13;nan
4617;BME280;2321;42.704;23.384;2024-02-04T16:55:18;95798.25;;;10.09;nan
4617;BME280;2321;42.704;23.384;2024-02-04T16:57:45;95818.03;;;10.06;nan
4617;BME280;2321;42.704;23.384;2024-02-04T17:00:12;95825.75;;;10.01;nan
4617;BME280;2321;42.704;23.384;2024-02-04T17:02:41;95829.59;;;9.98;nan
4617;BME280;2321;42.704;23.384;2024-02-04T17:05:09;95829.75;;;9.97;nan